sensor_id;sensor_type;location;lat;lon;timestamp;temperature;humidity
24618;DHT22;12762;51.730;5.356;2023-04-28T00:00:35;11.10;51.10
24618;DHT22;12762;51.730;5.356;2023-04-28T00:03:02;11.10;51.20
24618;DHT22;12762;51.730;5.356;2023-04-28T00:05:29;11.10;51.30
24618;DHT22;12762;51.730;5.356;2023-04-28T00:07:56;11.10;51.40
24618;DHT22;12762;51.730;5.356;2023-04-28T00:10:23;11.10;51.60
24618;DHT22;12762;51.730;5.356;2023-04-28T00:12:49;11.10;51.60
24618;DHT22;12762;51.730;5.356;2023-04-28T00:15:16;11.10;51.70
24618;DHT22;12762;51.730;5.356;2023-04-28T00:17:43;11.10;51.70
24618;DHT22;12762;51.730;5.356;2023-04-28T00:20:10;11.10;51.90
24618;DHT22;12762;51.730;5.356;2023-04-28T00:22:38;11.00;51.90
24618;DHT22;12762;51.730;5.356;2023-04-28T00:25:05;11.00;52.10
24618;DHT22;12762;51.730;5.356;2023-04-28T00:27:33;11.00;52.40
24618;DHT22;12762;51.730;5.356;2023-04-28T00:30:00;11.00;52.70
24618;DHT22;12762;51.730;5.356;2023-04-28T00:32:27;11.00;52.90
24618;DHT22;12762;51.730;5.356;2023-04-28T00:34:56;10.90;53.10
24618;DHT22;12762;51.730;5.356;2023-04-28T00:37:23;10.90;53.40
24618;DHT22;12762;51.730;5.356;2023-04-28T00:39:56;10.90;53.60
24618;DHT22;12762;51.730;5.356;2023-04-28T00:42:23;10.90;53.80
24618;DHT22;12762;51.730;5.356;2023-04-28T00:44:50;10.80;53.80
24618;DHT22;12762;51.730;5.356;2023-04-28T00:47:18;10.80;54.10
24618;DHT22;12762;51.730;5.356;2023-04-28T00:49:45;10.70;54.10
24618;DHT22;12762;51.730;5.356;2023-04-28T00:52:15;10.70;54.30
24618;DHT22;12762;51.730;5.356;2023-04-28T00:54:42;10.70;55.10
24618;DHT22;12762;51.730;5.356;2023-04-28T00:57:09;10.70;54.60
24618;DHT22;12762;51.730;5.356;2023-04-28T00:59:36;10.70;54.80
24618;DHT22;12762;51.730;5.356;2023-04-28T01:02:04;10.60;54.90
24618;DHT22;12762;51.730;5.356;2023-04-28T01:04:33;10.60;55.00
24618;DHT22;12762;51.730;5.356;2023-04-28T01:07:01;10.60;55.10
24618;DHT22;12762;51.730;5.356;2023-04-28T01:09:28;10.50;55.10
24618;DHT22;12762;51.730;5.356;2023-04-28T01:11:55;10.50;55.10
24618;DHT22;12762;51.730;5.356;2023-04-28T01:14:23;10.50;55.20
24618;DHT22;12762;51.730;5.356;2023-04-28T01:16:50;10.50;55.20
24618;DHT22;12762;51.730;5.356;2023-04-28T01:19:20;10.50;55.30
24618;DHT22;12762;51.730;5.356;2023-04-28T01:21:50;10.50;55.40
24618;DHT22;12762;51.730;5.356;2023-04-28T01:24:17;10.40;55.30
24618;DHT22;12762;51.730;5.356;2023-04-28T01:26:45;10.40;55.30
24618;DHT22;12762;51.730;5.356;2023-04-28T01:29:12;10.40;55.40
24618;DHT22;12762;51.730;5.356;2023-04-28T01:31:39;10.40;55.40
24618;DHT22;12762;51.730;5.356;2023-04-28T01:34:06;10.40;55.50
24618;DHT22;12762;51.730;5.356;2023-04-28T01:36:33;10.40;55.60
24618;DHT22;12762;51.730;5.356;2023-04-28T01:39:03;10.40;55.60
24618;DHT22;12762;51.730;5.356;2023-04-28T01:41:30;10.40;55.70
24618;DHT22;12762;51.730;5.356;2023-04-28T01:44:00;10.40;55.80
24618;DHT22;12762;51.730;5.356;2023-04-28T01:46:27;10.40;55.80
24618;DHT22;12762;51.730;5.356;2023-04-28T01:48:56;10.30;55.80
24618;DHT22;12762;51.730;5.356;2023-04-28T01:51:23;10.30;55.70
24618;DHT22;12762;51.730;5.356;2023-04-28T01:53:50;10.30;55.70
24618;DHT22;12762;51.730;5.356;2023-04-28T01:56:17;10.30;55.80
24618;DHT22;12762;51.730;5.356;2023-04-28T01:58:44;10.30;55.80
24618;DHT22;12762;51.730;5.356;2023-04-28T02:01:10;10.30;55.90
24618;DHT22;12762;51.730;5.356;2023-04-28T02:03:38;10.30;56.00
24618;DHT22;12762;51.730;5.356;2023-04-28T02:06:05;10.30;56.00
24618;DHT22;12762;51.730;5.356;2023-04-28T02:08:34;10.30;56.10
24618;DHT22;12762;51.730;5.356;2023-04-28T02:11:01;10.30;56.10
24618;DHT22;12762;51.730;5.356;2023-04-28T02:13:29;10.30;56.20
24618;DHT22;12762;51.730;5.356;2023-04-28T02:15:59;10.30;56.30
24618;DHT22;12762;51.730;5.356;2023-04-28T02:18:27;10.30;56.40
24618;DHT22;12762;51.730;5.356;2023-04-28T02:20:54;10.40;56.40
24618;DHT22;12762;51.730;5.356;2023-04-28T02:23:21;10.40;56.50
24618;DHT22;12762;51.730;5.356;2023-04-28T02:25:48;10.40;56.60
24618;DHT22;12762;51.730;5.356;2023-04-28T02:28:15;10.40;56.70
24618;DHT22;12762;51.730;5.356;2023-04-28T02:30:42;10.40;56.80
24618;DHT22;12762;51.730;5.356;2023-04-28T02:33:08;10.40;56.80
24618;DHT22;12762;51.730;5.356;2023-04-28T02:35:35;10.40;56.90
24618;DHT22;12762;51.730;5.356;2023-04-28T02:38:02;10.40;56.90
24618;DHT22;12762;51.730;5.356;2023-04-28T02:40:29;10.40;56.90
24618;DHT22;12762;51.730;5.356;2023-04-28T02:42:56;10.40;57.00
24618;DHT22;12762;51.730;5.356;2023-04-28T02:45:23;10.40;57.10
24618;DHT22;12762;51.730;5.356;2023-04-28T02:47:49;10.40;57.20
24618;DHT22;12762;51.730;5.356;2023-04-28T02:50:17;10.40;57.20
24618;DHT22;12762;51.730;5.356;2023-04-28T02:52:44;10.40;57.20
24618;DHT22;12762;51.730;5.356;2023-04-28T02:55:14;10.30;57.30
24618;DHT22;12762;51.730;5.356;2023-04-28T02:57:49;10.30;57.40
24618;DHT22;12762;51.730;5.356;2023-04-28T03:00:16;10.30;58.10
24618;DHT22;12762;51.730;5.356;2023-04-28T03:02:43;10.30;57.50
24618;DHT22;12762;51.730;5.356;2023-04-28T03:05:10;10.30;57.50
24618;DHT22;12762;51.730;5.356;2023-04-28T03:07:37;10.30;57.60
24618;DHT22;12762;51.730;5.356;2023-04-28T03:10:04;10.30;57.70
24618;DHT22;12762;51.730;5.356;2023-04-28T03:12:31;10.30;57.80
24618;DHT22;12762;51.730;5.356;2023-04-28T03:14:58;10.30;57.90
24618;DHT22;12762;51.730;5.356;2023-04-28T03:17:25;10.30;57.90
24618;DHT22;12762;51.730;5.356;2023-04-28T03:19:52;10.30;57.90
24618;DHT22;12762;51.730;5.356;2023-04-28T03:22:18;10.30;58.10
24618;DHT22;12762;51.730;5.356;2023-04-28T03:24:45;10.30;58.10
24618;DHT22;12762;51.730;5.356;2023-04-28T03:27:12;10.30;58.10
24618;DHT22;12762;51.730;5.356;2023-04-28T03:29:39;10.30;58.20
24618;DHT22;12762;51.730;5.356;2023-04-28T03:32:05;10.30;58.20
24618;DHT22;12762;51.730;5.356;2023-04-28T03:34:36;10.40;58.30
24618;DHT22;12762;51.730;5.356;2023-04-28T03:37:03;10.40;58.30
24618;DHT22;12762;51.730;5.356;2023-04-28T03:39:30;10.40;58.40
24618;DHT22;12762;51.730;5.356;2023-04-28T03:41:57;10.40;58.50
24618;DHT22;12762;51.730;5.356;2023-04-28T03:44:23;10.40;58.60
24618;DHT22;12762;51.730;5.356;2023-04-28T03:46:50;10.40;58.70
24618;DHT22;12762;51.730;5.356;2023-04-28T03:49:17;10.40;58.70
24618;DHT22;12762;51.730;5.356;2023-04-28T03:51:44;10.40;58.80
24618;DHT22;12762;51.730;5.356;2023-04-28T03:54:10;10.40;58.80
24618;DHT22;12762;51.730;5.356;2023-04-28T03:56:37;10.40;58.80
24618;DHT22;12762;51.730;5.356;2023-04-28T03:59:04;10.40;58.90
24618;DHT22;12762;51.730;5.356;2023-04-28T04:01:31;10.40;58.90
24618;DHT22;12762;51.730;5.356;2023-04-28T04:03:58;10.40;59.00
24618;DHT22;12762;51.730;5.356;2023-04-28T04:06:25;10.40;59.10
24618;DHT22;12762;51.730;5.356;2023-04-28T04:08:52;10.40;59.10
24618;DHT22;12762;51.730;5.356;2023-04-28T04:11:19;10.40;59.20
24618;DHT22;12762;51.730;5.356;2023-04-28T04:13:46;10.50;59.40
24618;DHT22;12762;51.730;5.356;2023-04-28T04:16:16;10.50;59.50
24618;DHT22;12762;51.730;5.356;2023-04-28T04:18:43;10.50;59.50
24618;DHT22;12762;51.730;5.356;2023-04-28T04:21:09;10.50;59.60
24618;DHT22;12762;51.730;5.356;2023-04-28T04:23:36;10.50;59.70
24618;DHT22;12762;51.730;5.356;2023-04-28T04:26:03;10.50;59.70
24618;DHT22;12762;51.730;5.356;2023-04-28T04:28:30;10.50;59.70
24618;DHT22;12762;51.730;5.356;2023-04-28T04:30:56;10.50;59.80
24618;DHT22;12762;51.730;5.356;2023-04-28T04:33:26;10.50;59.80
24618;DHT22;12762;51.730;5.356;2023-04-28T04:35:54;10.50;59.90
24618;DHT22;12762;51.730;5.356;2023-04-28T04:38:21;10.50;60.00
24618;DHT22;12762;51.730;5.356;2023-04-28T04:40:48;10.50;60.10
24618;DHT22;12762;51.730;5.356;2023-04-28T04:43:14;10.50;60.20
24618;DHT22;12762;51.730;5.356;2023-04-28T04:45:41;10.50;60.40
24618;DHT22;12762;51.730;5.356;2023-04-28T04:48:08;10.50;60.40
24618;DHT22;12762;51.730;5.356;2023-04-28T04:50:35;10.50;60.60
24618;DHT22;12762;51.730;5.356;2023-04-28T04:53:02;10.50;60.70
24618;DHT22;12762;51.730;5.356;2023-04-28T04:55:29;10.50;60.70
24618;DHT22;12762;51.730;5.356;2023-04-28T04:57:59;10.60;61.00
24618;DHT22;12762;51.730;5.356;2023-04-28T05:00:25;10.60;61.10
24618;DHT22;12762;51.730;5.356;2023-04-28T05:02:52;10.60;61.20
24618;DHT22;12762;51.730;5.356;2023-04-28T05:05:21;10.60;61.30
24618;DHT22;12762;51.730;5.356;2023-04-28T05:07:51;10.60;61.40
24618;DHT22;12762;51.730;5.356;2023-04-28T05:10:18;10.60;61.50
24618;DHT22;12762;51.730;5.356;2023-04-28T05:12:44;10.60;61.60
24618;DHT22;12762;51.730;5.356;2023-04-28T05:15:14;10.60;61.70
24618;DHT22;12762;51.730;5.356;2023-04-28T05:17:41;10.60;61.90
24618;DHT22;12762;51.730;5.356;2023-04-28T05:20:08;10.70;62.10
24618;DHT22;12762;51.730;5.356;2023-04-28T05:22:38;10.70;62.40
24618;DHT22;12762;51.730;5.356;2023-04-28T05:25:05;10.70;62.40
24618;DHT22;12762;51.730;5.356;2023-04-28T05:27:38;10.70;62.60
24618;DHT22;12762;51.730;5.356;2023-04-28T05:30:12;10.70;62.80
24618;DHT22;12762;51.730;5.356;2023-04-28T05:32:41;10.70;62.80
24618;DHT22;12762;51.730;5.356;2023-04-28T05:35:08;10.70;62.80
24618;DHT22;12762;51.730;5.356;2023-04-28T05:37:34;10.70;63.00
24618;DHT22;12762;51.730;5.356;2023-04-28T05:40:03;10.70;63.20
24618;DHT22;12762;51.730;5.356;2023-04-28T05:42:33;10.80;63.50
24618;DHT22;12762;51.730;5.356;2023-04-28T05:45:00;10.80;63.60
24618;DHT22;12762;51.730;5.356;2023-04-28T05:47:28;10.80;63.70
24618;DHT22;12762;51.730;5.356;2023-04-28T05:49:56;10.90;63.90
24618;DHT22;12762;51.730;5.356;2023-04-28T05:52:23;10.90;63.80
24618;DHT22;12762;51.730;5.356;2023-04-28T05:54:50;10.90;64.00
24618;DHT22;12762;51.730;5.356;2023-04-28T05:57:17;11.00;64.10
24618;DHT22;12762;51.730;5.356;2023-04-28T05:59:44;11.00;64.10
24618;DHT22;12762;51.730;5.356;2023-04-28T06:02:11;11.10;64.40
24618;DHT22;12762;51.730;5.356;2023-04-28T06:04:43;11.10;64.30
24618;DHT22;12762;51.730;5.356;2023-04-28T06:07:11;11.20;64.50
24618;DHT22;12762;51.730;5.356;2023-04-28T06:09:38;11.20;64.50
24618;DHT22;12762;51.730;5.356;2023-04-28T06:12:05;11.20;64.60
24618;DHT22;12762;51.730;5.356;2023-04-28T06:14:32;11.30;64.80
24618;DHT22;12762;51.730;5.356;2023-04-28T06:17:01;11.30;64.90
24618;DHT22;12762;51.730;5.356;2023-04-28T06:19:30;11.30;65.10
24618;DHT22;12762;51.730;5.356;2023-04-28T06:21:56;11.40;65.30
24618;DHT22;12762;51.730;5.356;2023-04-28T06:24:24;11.40;65.50
24618;DHT22;12762;51.730;5.356;2023-04-28T06:26:50;11.40;65.50
24618;DHT22;12762;51.730;5.356;2023-04-28T06:29:17;11.50;65.70
24618;DHT22;12762;51.730;5.356;2023-04-28T06:31:46;11.60;66.00
24618;DHT22;12762;51.730;5.356;2023-04-28T06:34:12;11.60;65.90
24618;DHT22;12762;51.730;5.356;2023-04-28T06:36:40;11.60;66.30
24618;DHT22;12762;51.730;5.356;2023-04-28T06:39:07;11.70;66.30
24618;DHT22;12762;51.730;5.356;2023-04-28T06:41:33;11.70;66.50
24618;DHT22;12762;51.730;5.356;2023-04-28T06:44:01;11.80;66.70
24618;DHT22;12762;51.730;5.356;2023-04-28T06:46:29;11.80;66.80
24618;DHT22;12762;51.730;5.356;2023-04-28T06:48:57;11.90;67.00
24618;DHT22;12762;51.730;5.356;2023-04-28T06:51:25;12.00;67.20
24618;DHT22;12762;51.730;5.356;2023-04-28T06:53:52;12.00;67.20
24618;DHT22;12762;51.730;5.356;2023-04-28T06:56:19;12.00;67.40
24618;DHT22;12762;51.730;5.356;2023-04-28T06:58:46;12.00;67.40
24618;DHT22;12762;51.730;5.356;2023-04-28T07:01:13;12.00;67.60
24618;DHT22;12762;51.730;5.356;2023-04-28T07:03:40;12.00;67.80
24618;DHT22;12762;51.730;5.356;2023-04-28T07:06:07;12.00;67.90
24618;DHT22;12762;51.730;5.356;2023-04-28T07:08:34;12.00;68.30
24618;DHT22;12762;51.730;5.356;2023-04-28T07:11:02;12.10;68.50
24618;DHT22;12762;51.730;5.356;2023-04-28T07:13:31;12.10;68.70
24618;DHT22;12762;51.730;5.356;2023-04-28T07:15:58;12.10;68.90
24618;DHT22;12762;51.730;5.356;2023-04-28T07:18:28;12.20;69.00
24618;DHT22;12762;51.730;5.356;2023-04-28T07:20:54;12.30;69.20
24618;DHT22;12762;51.730;5.356;2023-04-28T07:23:21;12.30;69.30
24618;DHT22;12762;51.730;5.356;2023-04-28T07:25:48;12.30;69.40
24618;DHT22;12762;51.730;5.356;2023-04-28T07:28:15;12.30;69.70
24618;DHT22;12762;51.730;5.356;2023-04-28T07:30:42;12.30;70.00
24618;DHT22;12762;51.730;5.356;2023-04-28T07:33:12;12.30;70.10
24618;DHT22;12762;51.730;5.356;2023-04-28T07:35:39;12.40;70.40
24618;DHT22;12762;51.730;5.356;2023-04-28T07:38:06;12.40;70.40
24618;DHT22;12762;51.730;5.356;2023-04-28T07:40:33;12.50;70.60
24618;DHT22;12762;51.730;5.356;2023-04-28T07:43:00;12.50;70.70
24618;DHT22;12762;51.730;5.356;2023-04-28T07:45:27;12.50;70.80
24618;DHT22;12762;51.730;5.356;2023-04-28T07:47:54;12.60;71.20
24618;DHT22;12762;51.730;5.356;2023-04-28T07:50:22;12.60;71.40
24618;DHT22;12762;51.730;5.356;2023-04-28T07:52:49;12.60;71.60
24618;DHT22;12762;51.730;5.356;2023-04-28T07:55:15;12.70;71.80
24618;DHT22;12762;51.730;5.356;2023-04-28T07:57:42;12.70;71.90
24618;DHT22;12762;51.730;5.356;2023-04-28T08:00:09;12.80;72.20
24618;DHT22;12762;51.730;5.356;2023-04-28T08:02:40;12.90;72.30
24618;DHT22;12762;51.730;5.356;2023-04-28T08:05:08;12.90;72.60
24618;DHT22;12762;51.730;5.356;2023-04-28T08:07:36;13.00;72.80
24618;DHT22;12762;51.730;5.356;2023-04-28T08:10:03;13.00;72.70
24618;DHT22;12762;51.730;5.356;2023-04-28T08:12:33;13.00;72.90
24618;DHT22;12762;51.730;5.356;2023-04-28T08:15:01;13.10;73.10
24618;DHT22;12762;51.730;5.356;2023-04-28T08:17:28;13.20;73.20
24618;DHT22;12762;51.730;5.356;2023-04-28T08:19:55;13.20;73.40
24618;DHT22;12762;51.730;5.356;2023-04-28T08:22:22;13.30;73.50
24618;DHT22;12762;51.730;5.356;2023-04-28T08:24:48;13.40;73.60
24618;DHT22;12762;51.730;5.356;2023-04-28T08:27:15;13.50;73.70
24618;DHT22;12762;51.730;5.356;2023-04-28T08:29:42;13.60;73.80
24618;DHT22;12762;51.730;5.356;2023-04-28T08:32:12;13.60;74.50
24618;DHT22;12762;51.730;5.356;2023-04-28T08:34:38;13.60;73.80
24618;DHT22;12762;51.730;5.356;2023-04-28T08:37:05;13.60;74.00
24618;DHT22;12762;51.730;5.356;2023-04-28T08:39:32;13.60;74.10
24618;DHT22;12762;51.730;5.356;2023-04-28T08:42:03;13.70;74.30
24618;DHT22;12762;51.730;5.356;2023-04-28T08:44:39;13.70;74.40
24618;DHT22;12762;51.730;5.356;2023-04-28T08:47:13;13.70;74.60
24618;DHT22;12762;51.730;5.356;2023-04-28T08:49:41;13.70;74.70
24618;DHT22;12762;51.730;5.356;2023-04-28T08:52:16;13.70;74.80
24618;DHT22;12762;51.730;5.356;2023-04-28T08:54:43;13.80;75.10
24618;DHT22;12762;51.730;5.356;2023-04-28T08:57:11;13.80;75.10
24618;DHT22;12762;51.730;5.356;2023-04-28T08:59:39;13.80;76.10
24618;DHT22;12762;51.730;5.356;2023-04-28T09:02:08;13.90;75.50
24618;DHT22;12762;51.730;5.356;2023-04-28T09:04:35;13.90;75.60
24618;DHT22;12762;51.730;5.356;2023-04-28T09:07:03;13.90;75.70
24618;DHT22;12762;51.730;5.356;2023-04-28T09:09:30;13.90;75.80
24618;DHT22;12762;51.730;5.356;2023-04-28T09:12:01;14.00;76.00
24618;DHT22;12762;51.730;5.356;2023-04-28T09:14:33;14.00;76.20
24618;DHT22;12762;51.730;5.356;2023-04-28T09:17:09;14.10;76.40
24618;DHT22;12762;51.730;5.356;2023-04-28T09:19:38;14.20;76.60
24618;DHT22;12762;51.730;5.356;2023-04-28T09:22:10;14.30;76.80
24618;DHT22;12762;51.730;5.356;2023-04-28T09:24:52;14.40;77.50
24618;DHT22;12762;51.730;5.356;2023-04-28T09:27:26;14.40;76.60
24618;DHT22;12762;51.730;5.356;2023-04-28T09:29:54;14.50;76.90
24618;DHT22;12762;51.730;5.356;2023-04-28T09:32:21;14.50;76.80
24618;DHT22;12762;51.730;5.356;2023-04-28T09:34:51;14.60;77.20
24618;DHT22;12762;51.730;5.356;2023-04-28T09:37:24;14.60;77.30
24618;DHT22;12762;51.730;5.356;2023-04-28T09:39:56;14.70;77.40
24618;DHT22;12762;51.730;5.356;2023-04-28T09:42:40;14.70;77.30
24618;DHT22;12762;51.730;5.356;2023-04-28T09:45:13;14.70;77.40
24618;DHT22;12762;51.730;5.356;2023-04-28T09:47:42;14.80;77.60
24618;DHT22;12762;51.730;5.356;2023-04-28T09:50:11;14.80;77.70
24618;DHT22;12762;51.730;5.356;2023-04-28T09:52:41;14.80;77.70
24618;DHT22;12762;51.730;5.356;2023-04-28T09:55:10;14.80;77.80
24618;DHT22;12762;51.730;5.356;2023-04-28T09:57:41;14.80;77.90
24618;DHT22;12762;51.730;5.356;2023-04-28T10:00:10;14.80;78.00
24618;DHT22;12762;51.730;5.356;2023-04-28T10:02:37;14.90;78.20
24618;DHT22;12762;51.730;5.356;2023-04-28T10:05:09;14.90;78.40
24618;DHT22;12762;51.730;5.356;2023-04-28T10:07:37;14.90;78.30
24618;DHT22;12762;51.730;5.356;2023-04-28T10:10:06;14.90;78.50
24618;DHT22;12762;51.730;5.356;2023-04-28T10:12:33;15.00;78.70
24618;DHT22;12762;51.730;5.356;2023-04-28T10:15:01;15.00;78.80
24618;DHT22;12762;51.730;5.356;2023-04-28T10:17:28;15.10;79.00
24618;DHT22;12762;51.730;5.356;2023-04-28T10:19:55;15.10;79.00
24618;DHT22;12762;51.730;5.356;2023-04-28T10:27:39;15.30;79.10
24618;DHT22;12762;51.730;5.356;2023-04-28T10:30:20;15.40;79.20
24618;DHT22;12762;51.730;5.356;2023-04-28T10:35:45;15.60;79.20
24618;DHT22;12762;51.730;5.356;2023-04-28T10:38:19;15.60;79.20
24618;DHT22;12762;51.730;5.356;2023-04-28T10:40:51;15.60;79.20
24618;DHT22;12762;51.730;5.356;2023-04-28T10:58:45;15.60;78.90
24618;DHT22;12762;51.730;5.356;2023-04-28T11:03:51;15.50;79.10
24618;DHT22;12762;51.730;5.356;2023-04-28T11:06:47;15.50;79.30
24618;DHT22;12762;51.730;5.356;2023-04-28T11:14:39;15.40;79.60
24618;DHT22;12762;51.730;5.356;2023-04-28T11:17:08;15.40;79.50
24618;DHT22;12762;51.730;5.356;2023-04-28T11:19:39;15.40;79.70
24618;DHT22;12762;51.730;5.356;2023-04-28T11:24:40;15.40;79.80
24618;DHT22;12762;51.730;5.356;2023-04-28T11:27:07;15.40;79.90
24618;DHT22;12762;51.730;5.356;2023-04-28T11:29:39;15.40;80.00
24618;DHT22;12762;51.730;5.356;2023-04-28T11:32:09;15.40;80.10
24618;DHT22;12762;51.730;5.356;2023-04-28T11:34:36;15.40;80.20
24618;DHT22;12762;51.730;5.356;2023-04-28T11:37:03;15.50;81.00
24618;DHT22;12762;51.730;5.356;2023-04-28T11:39:33;15.50;80.20
24618;DHT22;12762;51.730;5.356;2023-04-28T11:42:09;15.50;80.30
24618;DHT22;12762;51.730;5.356;2023-04-28T11:44:39;15.50;80.30
24618;DHT22;12762;51.730;5.356;2023-04-28T11:47:06;15.50;80.40
24618;DHT22;12762;51.730;5.356;2023-04-28T11:49:44;15.60;80.60
24618;DHT22;12762;51.730;5.356;2023-04-28T11:52:12;15.60;80.40
24618;DHT22;12762;51.730;5.356;2023-04-28T11:54:39;15.70;80.50
24618;DHT22;12762;51.730;5.356;2023-04-28T11:57:19;15.60;80.40
24618;DHT22;12762;51.730;5.356;2023-04-28T11:59:47;15.70;80.60
24618;DHT22;12762;51.730;5.356;2023-04-28T12:02:22;15.70;80.60
24618;DHT22;12762;51.730;5.356;2023-04-28T12:04:50;15.70;80.60
24618;DHT22;12762;51.730;5.356;2023-04-28T12:07:18;15.60;80.50
24618;DHT22;12762;51.730;5.356;2023-04-28T12:10:32;15.50;80.50
24618;DHT22;12762;51.730;5.356;2023-04-28T12:12:34;15.40;80.60
24618;DHT22;12762;51.730;5.356;2023-04-28T12:15:17;15.40;80.70
24618;DHT22;12762;51.730;5.356;2023-04-28T12:17:46;15.30;80.90
24618;DHT22;12762;51.730;5.356;2023-04-28T12:20:35;15.30;81.00
24618;DHT22;12762;51.730;5.356;2023-04-28T12:23:05;15.20;80.70
24618;DHT22;12762;51.730;5.356;2023-04-28T12:25:44;15.20;81.20
24618;DHT22;12762;51.730;5.356;2023-04-28T12:28:11;15.20;81.20
24618;DHT22;12762;51.730;5.356;2023-04-28T12:30:39;15.20;81.20
24618;DHT22;12762;51.730;5.356;2023-04-28T12:33:22;15.20;81.40
24618;DHT22;12762;51.730;5.356;2023-04-28T12:35:49;15.10;81.10
24618;DHT22;12762;51.730;5.356;2023-04-28T12:38:16;15.10;81.20
24618;DHT22;12762;51.730;5.356;2023-04-28T12:40:43;15.10;81.40
24618;DHT22;12762;51.730;5.356;2023-04-28T12:43:10;15.20;81.50
24618;DHT22;12762;51.730;5.356;2023-04-28T12:45:40;15.20;81.50
24618;DHT22;12762;51.730;5.356;2023-04-28T12:48:07;15.20;81.50
24618;DHT22;12762;51.730;5.356;2023-04-28T12:50:34;15.30;81.60
24618;DHT22;12762;51.730;5.356;2023-04-28T12:53:01;15.40;81.70
24618;DHT22;12762;51.730;5.356;2023-04-28T12:55:28;15.60;81.70
24618;DHT22;12762;51.730;5.356;2023-04-28T12:57:55;15.70;81.40
24618;DHT22;12762;51.730;5.356;2023-04-28T13:00:22;15.70;81.10
24618;DHT22;12762;51.730;5.356;2023-04-28T13:02:50;15.80;81.20
24618;DHT22;12762;51.730;5.356;2023-04-28T13:05:19;15.90;81.10
24618;DHT22;12762;51.730;5.356;2023-04-28T13:07:45;16.00;81.20
24618;DHT22;12762;51.730;5.356;2023-04-28T13:10:13;16.10;81.10
24618;DHT22;12762;51.730;5.356;2023-04-28T13:12:40;16.20;81.10
24618;DHT22;12762;51.730;5.356;2023-04-28T13:15:09;16.40;80.90
24618;DHT22;12762;51.730;5.356;2023-04-28T13:17:36;16.40;80.70
24618;DHT22;12762;51.730;5.356;2023-04-28T13:20:04;16.40;80.30
24618;DHT22;12762;51.730;5.356;2023-04-28T13:22:32;16.40;80.20
24618;DHT22;12762;51.730;5.356;2023-04-28T13:24:59;16.40;80.20
24618;DHT22;12762;51.730;5.356;2023-04-28T13:27:26;16.40;80.20
24618;DHT22;12762;51.730;5.356;2023-04-28T13:29:55;16.40;80.10
24618;DHT22;12762;51.730;5.356;2023-04-28T13:32:25;16.40;80.00
24618;DHT22;12762;51.730;5.356;2023-04-28T13:34:53;16.40;79.80
24618;DHT22;12762;51.730;5.356;2023-04-28T13:37:21;16.40;79.70
24618;DHT22;12762;51.730;5.356;2023-04-28T13:39:47;16.30;79.70
24618;DHT22;12762;51.730;5.356;2023-04-28T13:42:14;16.20;79.60
24618;DHT22;12762;51.730;5.356;2023-04-28T13:44:41;16.10;79.70
24618;DHT22;12762;51.730;5.356;2023-04-28T13:47:08;16.00;80.00
24618;DHT22;12762;51.730;5.356;2023-04-28T13:49:36;16.00;80.30
24618;DHT22;12762;51.730;5.356;2023-04-28T13:52:05;16.00;80.50
24618;DHT22;12762;51.730;5.356;2023-04-28T13:54:32;16.00;80.60
24618;DHT22;12762;51.730;5.356;2023-04-28T13:57:02;16.10;81.10
24618;DHT22;12762;51.730;5.356;2023-04-28T13:59:29;16.20;81.20
24618;DHT22;12762;51.730;5.356;2023-04-28T14:01:55;16.40;81.20
24618;DHT22;12762;51.730;5.356;2023-04-28T14:04:24;16.50;81.20
24618;DHT22;12762;51.730;5.356;2023-04-28T14:06:51;16.60;80.60
24618;DHT22;12762;51.730;5.356;2023-04-28T14:09:18;16.70;80.20
24618;DHT22;12762;51.730;5.356;2023-04-28T14:11:45;16.60;79.90
24618;DHT22;12762;51.730;5.356;2023-04-28T14:14:12;16.50;79.70
24618;DHT22;12762;51.730;5.356;2023-04-28T14:16:38;16.50;79.90
24618;DHT22;12762;51.730;5.356;2023-04-28T14:19:08;16.40;80.00
24618;DHT22;12762;51.730;5.356;2023-04-28T14:21:36;16.20;80.00
24618;DHT22;12762;51.730;5.356;2023-04-28T14:24:09;16.20;80.40
24618;DHT22;12762;51.730;5.356;2023-04-28T14:26:36;16.20;80.70
24618;DHT22;12762;51.730;5.356;2023-04-28T14:29:03;16.10;80.70
24618;DHT22;12762;51.730;5.356;2023-04-28T14:31:31;16.10;80.90
24618;DHT22;12762;51.730;5.356;2023-04-28T14:33:58;16.00;81.10
24618;DHT22;12762;51.730;5.356;2023-04-28T14:36:25;15.90;81.20
24618;DHT22;12762;51.730;5.356;2023-04-28T14:38:51;15.80;81.50
24618;DHT22;12762;51.730;5.356;2023-04-28T14:41:18;15.80;81.60
24618;DHT22;12762;51.730;5.356;2023-04-28T14:43:45;15.80;81.90
24618;DHT22;12762;51.730;5.356;2023-04-28T14:46:12;15.70;82.10
24618;DHT22;12762;51.730;5.356;2023-04-28T14:48:39;15.80;82.50
24618;DHT22;12762;51.730;5.356;2023-04-28T14:51:07;15.80;82.60
24618;DHT22;12762;51.730;5.356;2023-04-28T14:53:33;15.80;82.50
24618;DHT22;12762;51.730;5.356;2023-04-28T14:56:06;15.90;82.80
24618;DHT22;12762;51.730;5.356;2023-04-28T14:58:44;15.90;82.80
24618;DHT22;12762;51.730;5.356;2023-04-28T15:01:14;16.00;82.70
24618;DHT22;12762;51.730;5.356;2023-04-28T15:03:41;16.00;82.70
24618;DHT22;12762;51.730;5.356;2023-04-28T15:06:09;16.00;82.60
24618;DHT22;12762;51.730;5.356;2023-04-28T15:08:37;16.00;82.50
24618;DHT22;12762;51.730;5.356;2023-04-28T15:11:05;16.00;82.70
24618;DHT22;12762;51.730;5.356;2023-04-28T15:13:32;16.00;82.90
24618;DHT22;12762;51.730;5.356;2023-04-28T15:15:59;16.00;83.80
24618;DHT22;12762;51.730;5.356;2023-04-28T15:18:26;16.00;83.10
24618;DHT22;12762;51.730;5.356;2023-04-28T15:20:53;16.10;83.10
24618;DHT22;12762;51.730;5.356;2023-04-28T15:23:20;16.20;83.10
24618;DHT22;12762;51.730;5.356;2023-04-28T15:25:50;16.20;82.90
24618;DHT22;12762;51.730;5.356;2023-04-28T15:28:21;16.30;83.10
24618;DHT22;12762;51.730;5.356;2023-04-28T15:30:51;16.40;82.90
24618;DHT22;12762;51.730;5.356;2023-04-28T15:33:18;16.40;82.70
24618;DHT22;12762;51.730;5.356;2023-04-28T15:35:45;16.40;82.50
24618;DHT22;12762;51.730;5.356;2023-04-28T15:38:12;16.30;82.40
24618;DHT22;12762;51.730;5.356;2023-04-28T15:40:43;16.40;82.50
24618;DHT22;12762;51.730;5.356;2023-04-28T15:43:11;16.40;82.40
24618;DHT22;12762;51.730;5.356;2023-04-28T15:45:42;16.30;82.10
24618;DHT22;12762;51.730;5.356;2023-04-28T15:48:10;16.30;82.10
24618;DHT22;12762;51.730;5.356;2023-04-28T15:50:37;16.30;82.10
24618;DHT22;12762;51.730;5.356;2023-04-28T15:53:04;16.30;81.90
24618;DHT22;12762;51.730;5.356;2023-04-28T15:55:31;16.30;81.80
24618;DHT22;12762;51.730;5.356;2023-04-28T15:57:58;16.30;81.80
24618;DHT22;12762;51.730;5.356;2023-04-28T16:00:25;16.40;82.00
24618;DHT22;12762;51.730;5.356;2023-04-28T16:02:52;16.40;81.80
24618;DHT22;12762;51.730;5.356;2023-04-28T16:05:19;16.40;81.70
24618;DHT22;12762;51.730;5.356;2023-04-28T16:07:46;16.50;81.70
24618;DHT22;12762;51.730;5.356;2023-04-28T16:10:14;16.50;81.60